Time;durP1;ratioP1;P1;durP2;ratioP2;P2;SDS_P1;SDS_P2;PMS_P1;PMS_P2;Temp;Humidity;BMP_temperature;BMP_pressure;BME280_temperature;BME280_humidity;BME280_pressure;Samples;Min_cycle;Max_cycle;Signal;HPM_P1;HPM_P2
2022/01/03 00:01:40;;;;;;;3.15;0.73;;;16.20;82.90;;;;;;4095322;28;20117;-60
2022/01/03 00:04:04;;;;;;;2.60;0.63;;;16.20;82.70;;;;;;4105868;28;20102;-60
2022/01/03 00:06:27;;;;;;;6.50;0.80;;;16.20;83.00;;;;;;4111477;28;20101;-60
2022/01/03 00:08:50;;;;;;;3.90;1.25;;;16.20;83.00;;;;;;4125745;28;20081;-60
2022/01/03 00:11:17;;;;;;;4.65;1.33;;;16.20;84.20;;;;;;4124388;28;20089;-60
2022/01/03 00:13:42;;;;;;;3.97;0.85;;;16.20;83.20;;;;;;4122866;28;20100;-60
2022/01/03 00:16:05;;;;;;;5.07;1.05;;;16.20;83.10;;;;;;4111395;28;20101;-60
2022/01/03 00:18:28;;;;;;;5.10;1.40;;;16.20;82.80;;;;;;4111445;28;20066;-60
2022/01/03 00:20:57;;;;;;;5.82;0.80;;;16.10;83.00;;;;;;4111269;28;20101;-60
2022/01/03 00:23:24;;;;;;;5.63;1.10;;;16.10;83.40;;;;;;4121339;28;20058;-60
2022/01/03 00:25:54;;;;;;;7.35;1.42;;;16.20;83.50;;;;;;4111111;28;20039;-60
2022/01/03 00:28:24;;;;;;;2.60;1.08;;;16.10;83.70;;;;;;4110395;28;20054;-60
2022/01/03 00:30:50;;;;;;;8.60;1.42;;;16.10;83.60;;;;;;4123870;28;20053;-60
2022/01/03 00:33:14;;;;;;;7.13;0.98;;;16.10;83.70;;;;;;4125893;28;20043;-60
2022/01/03 00:35:39;;;;;;;4.03;1.30;;;16.10;83.90;;;;;;4125313;28;20438;-59
2022/01/03 00:38:03;;;;;;;13.25;1.60;;;16.10;84.10;;;;;;4126272;28;20054;-59
2022/01/03 00:40:28;;;;;;;4.85;1.27;;;16.10;84.00;;;;;;4114335;28;20201;-59
2022/01/03 00:42:51;;;;;;;7.88;1.40;;;16.00;83.70;;;;;;4108678;28;20743;-59
2022/01/03 00:45:16;;;;;;;6.47;1.40;;;16.00;84.20;;;;;;4116345;28;20659;-60
2022/01/03 00:47:39;;;;;;;11.65;2.42;;;16.00;84.90;;;;;;4125056;28;20054;-59
2022/01/03 00:50:04;;;;;;;6.28;1.48;;;16.00;83.80;;;;;;4127027;28;20090;-59
2022/01/03 00:52:27;;;;;;;13.15;2.42;;;16.10;84.20;;;;;;4094929;28;20538;-59
2022/01/03 00:54:51;;;;;;;8.50;1.77;;;16.00;84.20;;;;;;4094705;28;20118;-60
2022/01/03 00:57:24;;;;;;;7.85;1.58;;;16.00;84.10;;;;;;4093472;28;20075;-60
2022/01/03 00:59:57;;;;;;;7.88;1.58;;;16.00;84.30;;;;;;4115590;28;20491;-60
2022/01/03 01:02:22;;;;;;;7.45;1.63;;;16.00;84.00;;;;;;4126467;28;20092;-60
2022/01/03 01:04:47;;;;;;;10.88;1.42;;;16.00;84.40;;;;;;4126915;28;20113;-60
2022/01/03 01:07:10;;;;;;;12.07;2.17;;;16.00;84.30;;;;;;4125253;28;20141;-60
2022/01/03 01:09:36;;;;;;;6.93;1.30;;;16.00;84.20;;;;;;4125277;28;20100;-59
2022/01/03 01:11:59;;;;;;;13.63;2.60;;;16.00;84.30;;;;;;4111265;28;22412;-60
2022/01/03 01:14:31;;;;;;;12.10;3.08;;;15.90;83.90;;;;;;4108002;28;20050;-60
2022/01/03 01:16:55;;;;;;;13.45;3.35;;;15.90;84.00;;;;;;4108786;28;20054;-60
2022/01/03 01:19:21;;;;;;;13.68;2.45;;;15.90;84.90;;;;;;4108757;28;20471;-60
2022/01/03 01:21:50;;;;;;;10.05;2.20;;;15.90;83.70;;;;;;4108697;28;20082;-59
2022/01/03 01:24:13;;;;;;;15.18;2.55;;;15.90;84.30;;;;;;4124381;28;20058;-59
2022/01/03 01:29:17;;;;;;;15.65;2.97;;;15.90;83.80;;;;;;4136420;28;20445;-59
2022/01/03 01:31:46;;;;;;;18.90;3.10;;;15.90;84.30;;;;;;4122074;28;20042;-59
2022/01/03 01:34:15;;;;;;;18.35;2.40;;;15.90;84.30;;;;;;4126041;28;20109;-59
2022/01/03 01:36:43;;;;;;;15.27;3.17;;;15.90;84.20;;;;;;4125283;28;20058;-59
2022/01/03 01:39:08;;;;;;;14.30;2.13;;;15.90;84.40;;;;;;4116466;28;20054;-59
2022/01/03 01:41:38;;;;;;;12.50;2.47;;;15.80;84.50;;;;;;4124608;28;20046;-59
2022/01/03 01:44:01;;;;;;;16.42;2.58;;;15.90;84.30;;;;;;4124714;28;20105;-59
2022/01/03 01:46:25;;;;;;;20.73;3.33;;;15.80;84.30;;;;;;4094223;28;20051;-59
2022/01/03 01:49:05;;;;;;;18.00;2.72;;;15.80;83.90;;;;;;4110105;28;20086;-59
2022/01/03 01:51:28;;;;;;;21.95;3.13;;;15.80;83.70;;;;;;4124216;28;20053;-59
2022/01/03 01:53:57;;;;;;;10.10;3.20;;;15.80;83.90;;;;;;4124157;28;20042;-60
2022/01/03 01:56:27;;;;;;;8.45;1.50;;;15.80;83.50;;;;;;4124260;28;20101;-60
2022/01/03 01:59:09;;;;;;;15.95;2.45;;;15.80;84.10;;;;;;4124713;28;20116;-59
2022/01/03 02:01:43;;;;;;;12.32;2.83;;;15.80;84.00;;;;;;4122687;28;20050;-59
2022/01/03 02:04:17;;;;;;;12.60;3.03;;;15.80;83.90;;;;;;4121764;28;20074;-59
2022/01/03 02:06:45;;;;;;;11.40;2.55;;;15.70;85.00;;;;;;4107785;28;20046;-59
2022/01/03 02:09:17;;;;;;;15.75;3.90;;;15.70;84.10;;;;;;4121865;28;20060;-60
2022/01/03 02:11:51;;;;;;;14.13;2.42;;;15.70;84.60;;;;;;4108702;28;20105;-59
2022/01/03 02:14:15;;;;;;;15.30;2.72;;;15.70;84.50;;;;;;4108091;28;20054;-59
2022/01/03 02:16:43;;;;;;;12.27;2.13;;;15.70;84.50;;;;;;4116758;28;20082;-59
2022/01/03 02:19:07;;;;;;;13.90;2.75;;;15.70;84.40;;;;;;4093949;28;20106;-59
2022/01/03 02:21:32;;;;;;;16.15;3.25;;;15.70;84.30;;;;;;4096834;28;20055;-59
2022/01/03 02:23:55;;;;;;;14.15;2.95;;;15.70;84.20;;;;;;4109362;28;20577;-59
2022/01/03 02:26:19;;;;;;;19.23;3.63;;;15.70;84.20;;;;;;4095675;28;20055;-59
2022/01/03 02:28:44;;;;;;;25.77;3.92;;;15.70;84.20;;;;;;4108808;28;20097;-60
2022/01/03 02:31:06;;;;;;;18.23;3.80;;;15.70;83.90;;;;;;4121148;28;20462;-59
2022/01/03 02:33:31;;;;;;;13.23;2.92;;;15.70;84.00;;;;;;4138847;28;20189;-59
2022/01/03 02:35:55;;;;;;;12.63;2.50;;;15.70;84.00;;;;;;4126861;28;20081;-59
2022/01/03 02:38:21;;;;;;;10.18;2.47;;;15.70;84.20;;;;;;4141444;28;20164;-59
2022/01/03 02:40:44;;;;;;;14.65;2.97;;;15.70;84.60;;;;;;4127151;28;20077;-60
2022/01/03 02:43:07;;;;;;;16.45;3.05;;;15.70;84.80;;;;;;4112177;28;20063;-59
2022/01/03 02:45:31;;;;;;;19.58;2.90;;;15.60;85.60;;;;;;4112352;28;20546;-59
2022/01/03 02:47:58;;;;;;;15.50;3.00;;;15.60;84.60;;;;;;4111199;28;20130;-58
2022/01/03 02:50:22;;;;;;;15.38;2.83;;;15.60;84.70;;;;;;4112160;28;20476;-59
2022/01/03 02:52:46;;;;;;;16.48;2.85;;;15.60;84.60;;;;;;4112064;28;20384;-58
2022/01/03 02:55:14;;;;;;;18.80;3.50;;;15.60;84.50;;;;;;4111256;28;20239;-59
2022/01/03 02:57:38;;;;;;;20.17;3.42;;;15.60;84.30;;;;;;4112404;28;20054;-59
2022/01/03 03:00:02;;;;;;;14.25;3.42;;;15.60;84.70;;;;;;4111134;28;20105;-59
2022/01/03 03:02:27;;;;;;;14.80;3.20;;;15.60;84.70;;;;;;4124910;28;20050;-59
2022/01/03 03:04:55;;;;;;;14.45;2.67;;;15.60;84.00;;;;;;4111477;28;20055;-59
2022/01/03 03:07:19;;;;;;;10.55;2.60;;;15.60;85.00;;;;;;4110610;28;20047;-59
2022/01/03 03:09:43;;;;;;;16.58;3.72;;;15.60;84.70;;;;;;4110760;28;20058;-59
2022/01/03 03:12:09;;;;;;;15.13;3.55;;;15.60;84.50;;;;;;4110639;28;20050;-60
2022/01/03 03:14:32;;;;;;;13.77;2.55;;;15.60;84.30;;;;;;4110347;28;20050;-60
2022/01/03 03:16:55;;;;;;;16.50;3.65;;;15.60;84.90;;;;;;4112033;28;20058;-59
2022/01/03 03:19:18;;;;;;;15.00;3.17;;;15.60;84.70;;;;;;4110850;28;20475;-59
2022/01/03 03:21:41;;;;;;;17.23;3.53;;;15.50;84.80;;;;;;4096783;28;20463;-59
2022/01/03 03:24:05;;;;;;;18.88;3.10;;;15.60;84.70;;;;;;4094863;28;20524;-60
2022/01/03 03:26:29;;;;;;;20.80;4.38;;;15.50;83.70;;;;;;4108519;28;20050;-60
2022/01/03 03:28:53;;;;;;;22.05;4.10;;;15.50;84.10;;;;;;4094993;28;20180;-59
2022/01/03 03:31:18;;;;;;;17.05;2.88;;;15.50;84.30;;;;;;4097133;28;20102;-60
2022/01/03 03:33:42;;;;;;;22.92;3.67;;;15.50;84.50;;;;;;4127954;28;20050;-59
2022/01/03 03:36:06;;;;;;;16.17;2.92;;;15.50;84.70;;;;;;4126092;28;20469;-59
2022/01/03 03:38:30;;;;;;;17.58;3.28;;;15.50;84.90;;;;;;4124919;28;20097;-59
2022/01/03 03:40:58;;;;;;;15.35;2.97;;;15.50;85.10;;;;;;4128234;28;20050;-59
2022/01/03 03:43:24;;;;;;;12.73;2.60;;;15.50;84.50;;;;;;4139909;28;20050;-59
2022/01/03 03:45:49;;;;;;;19.55;3.22;;;15.50;84.90;;;;;;4126001;28;20477;-59
2022/01/03 03:48:13;;;;;;;20.83;3.42;;;15.50;84.90;;;;;;4126432;28;20042;-59
2022/01/03 03:50:37;;;;;;;16.73;3.13;;;15.50;84.60;;;;;;4126161;28;20065;-59
2022/01/03 03:53:00;;;;;;;15.23;2.63;;;15.50;85.70;;;;;;4125931;28;20050;-59
2022/01/03 03:55:23;;;;;;;15.00;2.58;;;15.50;85.30;;;;;;4118840;28;20051;-60
2022/01/03 03:57:46;;;;;;;14.27;3.40;;;15.50;86.30;;;;;;4110126;28;20138;-60
2022/01/03 04:00:14;;;;;;;13.45;3.55;;;15.50;86.10;;;;;;4111868;28;20097;-60
2022/01/03 04:02:45;;;;;;;17.75;3.30;;;15.50;86.40;;;;;;4112794;28;20565;-60
2022/01/03 04:05:10;;;;;;;8.65;2.42;;;15.50;85.10;;;;;;4125833;28;20581;-59
2022/01/03 04:07:34;;;;;;;17.52;3.10;;;15.50;85.60;;;;;;4126430;28;20050;-59
2022/01/03 04:09:57;;;;;;;15.02;3.40;;;15.40;85.60;;;;;;4115157;28;20086;-59
2022/01/03 04:12:20;;;;;;;15.45;2.65;;;15.40;85.50;;;;;;4124003;28;20054;-59
2022/01/03 04:14:43;;;;;;;14.15;3.13;;;15.50;85.40;;;;;;4110253;28;20058;-59
2022/01/03 04:17:06;;;;;;;15.13;2.90;;;15.40;85.50;;;;;;4111366;28;20519;-59
2022/01/03 04:19:31;;;;;;;13.57;2.05;;;15.50;85.90;;;;;;4109498;28;20055;-60
2022/01/03 04:21:54;;;;;;;14.35;3.22;;;15.50;86.30;;;;;;4111163;28;20126;-59
2022/01/03 04:24:18;;;;;;;14.80;3.63;;;15.50;86.00;;;;;;4093647;28;20122;-59
2022/01/03 04:26:43;;;;;;;19.38;3.67;;;15.60;85.50;;;;;;4093875;28;20083;-59
2022/01/03 04:29:08;;;;;;;13.40;2.85;;;15.70;85.20;;;;;;4107698;28;20054;-59
2022/01/03 04:31:33;;;;;;;17.17;3.15;;;15.80;85.00;;;;;;4094493;28;20517;-59
2022/01/03 04:33:56;;;;;;;17.92;3.50;;;15.80;84.80;;;;;;4106438;28;20778;-59
2022/01/03 04:36:21;;;;;;;14.23;3.33;;;15.90;84.50;;;;;;4103170;28;20042;-59
2022/01/03 04:38:44;;;;;;;20.33;4.07;;;15.90;84.30;;;;;;4123795;28;20058;-59
2022/01/03 04:41:09;;;;;;;22.42;2.88;;;15.90;84.30;;;;;;4126046;28;20112;-59
2022/01/03 04:43:33;;;;;;;21.30;4.57;;;15.90;84.10;;;;;;4110599;28;20042;-59
2022/01/03 04:45:56;;;;;;;19.20;3.92;;;15.90;84.10;;;;;;4109183;28;20061;-59
2022/01/03 04:48:19;;;;;;;24.30;3.85;;;15.90;84.00;;;;;;4109200;28;20106;-59
2022/01/03 04:50:42;;;;;;;18.65;3.88;;;15.90;84.00;;;;;;4123148;28;20054;-59
2022/01/03 04:53:07;;;;;;;19.23;3.17;;;15.90;84.10;;;;;;4119678;28;20093;-59
2022/01/03 04:55:32;;;;;;;21.17;4.20;;;15.90;83.90;;;;;;4125278;28;20129;-60
2022/01/03 04:57:55;;;;;;;18.75;3.78;;;15.90;84.10;;;;;;4125042;28;20101;-59
2022/01/03 05:00:18;;;;;;;18.05;4.13;;;15.90;84.10;;;;;;4125196;28;20058;-59
2022/01/03 05:02:42;;;;;;;24.20;3.53;;;15.80;83.90;;;;;;4125544;28;20054;-59
2022/01/03 05:05:06;;;;;;;18.77;2.83;;;15.80;83.90;;;;;;4126555;28;20050;-59
2022/01/03 05:07:29;;;;;;;18.80;3.47;;;15.80;84.10;;;;;;4125157;28;20116;-59
2022/01/03 05:09:53;;;;;;;15.48;4.80;;;15.80;85.10;;;;;;4124888;28;20105;-59
2022/01/03 05:12:17;;;;;;;20.30;3.85;;;15.80;84.90;;;;;;4138939;28;20552;-59
2022/01/03 05:14:40;;;;;;;11.65;2.65;;;15.70;83.90;;;;;;4113257;28;20087;-59
2022/01/03 05:17:04;;;;;;;21.90;4.15;;;15.70;84.20;;;;;;4110189;28;20442;-59
2022/01/03 05:19:27;;;;;;;13.80;2.70;;;15.70;84.40;;;;;;4108896;28;20460;-58
2022/01/03 05:21:50;;;;;;;18.17;3.78;;;15.80;84.50;;;;;;4110516;28;20188;-59
2022/01/03 05:24:15;;;;;;;15.82;3.50;;;15.80;84.00;;;;;;4110406;28;20546;-58
2022/01/03 05:26:40;;;;;;;19.77;3.65;;;15.90;83.90;;;;;;4125256;28;20101;-59
2022/01/03 05:29:03;;;;;;;20.27;4.35;;;16.00;83.60;;;;;;4138863;28;20560;-58
2022/01/03 05:31:27;;;;;;;14.18;2.92;;;16.00;83.20;;;;;;4112758;28;20387;-58
2022/01/03 05:33:50;;;;;;;16.17;3.80;;;16.00;83.10;;;;;;4122693;28;20108;-59
2022/01/03 05:36:13;;;;;;;18.75;3.38;;;16.10;84.00;;;;;;4108867;28;20110;-59
2022/01/03 05:38:36;;;;;;;23.23;4.60;;;16.20;82.80;;;;;;4108793;28;20102;-58
2022/01/03 05:41:00;;;;;;;14.85;3.53;;;16.30;82.50;;;;;;4111309;28;20109;-59
2022/01/03 05:43:26;;;;;;;26.92;4.60;;;16.30;81.90;;;;;;4108982;28;20047;-59
2022/01/03 05:45:49;;;;;;;18.48;3.90;;;16.40;81.50;;;;;;4109985;28;20203;-58
2022/01/03 05:48:13;;;;;;;19.90;3.65;;;16.40;81.30;;;;;;4113915;28;20058;-59
2022/01/03 05:50:36;;;;;;;22.05;3.42;;;16.40;81.90;;;;;;4108868;28;20081;-59
2022/01/03 05:52:58;;;;;;;19.00;4.30;;;16.40;81.10;;;;;;4110244;28;20050;-59
2022/01/03 05:55:24;;;;;;;14.27;3.55;;;16.40;81.10;;;;;;4110526;28;20055;-59
2022/01/03 05:57:47;;;;;;;16.70;3.30;;;16.40;81.10;;;;;;4112594;28;20054;-59
2022/01/03 06:00:18;;;;;;;19.23;4.03;;;16.40;81.20;;;;;;4111751;28;20109;-59
2022/01/03 06:02:42;;;;;;;27.90;5.00;;;16.30;81.30;;;;;;4114078;28;20050;-59
2022/01/03 06:05:09;;;;;;;20.15;3.75;;;16.30;81.20;;;;;;4129205;28;20121;-58
2022/01/03 06:07:32;;;;;;;16.80;3.65;;;16.20;81.40;;;;;;4129415;28;20081;-58
2022/01/03 06:09:56;;;;;;;21.73;4.45;;;16.20;82.60;;;;;;4128068;28;20108;-59
2022/01/03 06:12:20;;;;;;;15.98;4.30;;;16.10;81.80;;;;;;4141525;28;20053;-59
2022/01/03 06:14:48;;;;;;;23.05;5.05;;;16.10;81.90;;;;;;4127939;28;20473;-59
2022/01/03 06:17:13;;;;;;;26.17;4.40;;;16.10;82.00;;;;;;4127582;28;20760;-58
2022/01/03 06:19:39;;;;;;;22.80;4.10;;;16.00;82.00;;;;;;4121243;28;20093;-59
2022/01/03 06:22:03;;;;;;;27.40;4.60;;;16.00;82.10;;;;;;4111815;28;20094;-59
2022/01/03 06:24:27;;;;;;;22.23;3.20;;;15.90;82.40;;;;;;4110871;28;20054;-59
2022/01/03 06:26:54;;;;;;;27.35;4.43;;;15.90;82.90;;;;;;4111310;28;20051;-59
2022/01/03 06:29:18;;;;;;;24.42;5.35;;;16.00;82.90;;;;;;4112165;28;20813;-58
2022/01/03 06:31:43;;;;;;;33.15;5.25;;;16.00;82.60;;;;;;4125154;28;20589;-59
2022/01/03 06:34:08;;;;;;;21.88;4.88;;;16.10;82.30;;;;;;4110889;28;20054;-58
2022/01/03 06:36:32;;;;;;;23.52;4.18;;;16.20;82.20;;;;;;4113896;28;20059;-59
2022/01/03 06:38:58;;;;;;;21.90;5.55;;;16.20;82.00;;;;;;4111387;28;20050;-59
2022/01/03 06:41:21;;;;;;;29.23;5.30;;;16.20;81.70;;;;;;4125294;28;20051;-59
2022/01/03 06:43:45;;;;;;;27.23;5.32;;;16.20;81.40;;;;;;4125067;28;20054;-59
2022/01/03 06:46:10;;;;;;;23.88;4.10;;;16.20;81.40;;;;;;4112596;28;20054;-59
2022/01/03 06:48:33;;;;;;;19.52;5.03;;;16.20;81.50;;;;;;4112517;28;20080;-59
2022/01/03 06:50:58;;;;;;;28.88;4.70;;;16.20;81.50;;;;;;4111416;28;20050;-58
2022/01/03 06:53:21;;;;;;;17.63;3.08;;;16.20;81.50;;;;;;4112408;28;20051;-59
2022/01/03 06:55:44;;;;;;;21.35;4.75;;;16.20;81.70;;;;;;4111438;28;20054;-59
2022/01/03 06:58:07;;;;;;;29.92;5.50;;;16.10;81.90;;;;;;4111120;28;20078;-59
2022/01/03 07:00:29;;;;;;;20.92;3.88;;;16.10;82.00;;;;;;4124752;28;20450;-59
2022/01/03 07:02:52;;;;;;;21.92;4.45;;;16.10;81.70;;;;;;4112176;28;20109;-60
2022/01/03 07:05:16;;;;;;;24.10;4.20;;;16.10;81.70;;;;;;4112625;28;20054;-59
2022/01/03 07:07:41;;;;;;;24.85;4.25;;;16.10;81.80;;;;;;4111203;28;20094;-58
2022/01/03 07:10:05;;;;;;;19.38;4.38;;;16.10;81.80;;;;;;4112323;28;20050;-59
2022/01/03 07:12:28;;;;;;;18.17;3.03;;;16.10;81.90;;;;;;4112479;28;20093;-59
2022/01/03 07:20:13;;;;;;;20.45;3.85;;;16.20;82.00;;;;;;4111397;28;20113;-59
2022/01/03 07:22:40;;;;;;;16.20;3.17;;;16.30;81.60;;;;;;4111882;28;20113;-59
2022/01/03 07:25:04;;;;;;;24.40;4.05;;;16.30;81.40;;;;;;4112902;28;20203;-59
2022/01/03 07:27:28;;;;;;;26.60;4.63;;;16.30;81.20;;;;;;4116131;28;20054;-59
2022/01/03 07:29:51;;;;;;;23.17;4.82;;;16.40;81.40;;;;;;4116010;28;20055;-59
2022/01/03 07:32:14;;;;;;;22.15;4.07;;;16.40;81.30;;;;;;4111662;28;20055;-59
2022/01/03 07:34:38;;;;;;;21.48;4.25;;;16.40;82.20;;;;;;4095846;28;20055;-59
2022/01/03 07:37:00;;;;;;;23.65;4.60;;;16.40;82.10;;;;;;4099423;28;20058;-58
2022/01/03 07:39:25;;;;;;;17.80;3.65;;;16.40;81.20;;;;;;4105501;28;20051;-59
2022/01/03 07:41:48;;;;;;;19.00;4.20;;;16.40;81.20;;;;;;4112729;28;20097;-59
2022/01/03 07:44:11;;;;;;;17.73;3.72;;;16.40;81.30;;;;;;4112019;28;20573;-58
2022/01/03 07:46:34;;;;;;;22.70;4.32;;;16.30;82.30;;;;;;4096127;28;20055;-59
2022/01/03 07:48:57;;;;;;;30.75;4.90;;;16.20;81.50;;;;;;4109940;28;20054;-60
2022/01/03 07:51:20;;;;;;;19.30;5.03;;;16.20;81.70;;;;;;4116951;28;20077;-61
2022/01/03 07:53:43;;;;;;;24.30;4.15;;;16.20;81.80;;;;;;4116084;28;20258;-62
2022/01/03 07:56:09;;;;;;;18.38;3.58;;;16.20;81.90;;;;;;4111218;28;20105;-61
2022/01/03 07:58:32;;;;;;;26.75;4.65;;;16.20;82.10;;;;;;4111532;28;20042;-60
2022/01/03 08:00:55;;;;;;;17.85;3.83;;;16.10;82.00;;;;;;4111572;28;20058;-60
2022/01/03 08:03:19;;;;;;;21.73;4.20;;;16.10;82.20;;;;;;4111512;28;20047;-61
2022/01/03 08:05:58;;;;;;;22.08;4.10;;;16.10;82.10;;;;;;4111139;28;20101;-60
2022/01/03 08:08:21;;;;;;;27.88;4.60;;;16.00;82.30;;;;;;4113020;28;20090;-61
2022/01/03 08:10:46;;;;;;;30.95;5.05;;;16.00;82.50;;;;;;4122429;28;20458;-61
2022/01/03 08:13:10;;;;;;;20.50;3.33;;;16.00;82.50;;;;;;4108057;28;20098;-60
2022/01/03 08:15:33;;;;;;;21.52;3.75;;;16.00;82.50;;;;;;4109478;28;20495;-60
2022/01/03 08:17:57;;;;;;;26.02;3.78;;;15.90;82.40;;;;;;4108720;28;20051;-60
2022/01/03 08:20:20;;;;;;;23.30;4.97;;;15.90;82.60;;;;;;4108635;28;20450;-60
2022/01/03 08:22:44;;;;;;;22.95;4.82;;;15.90;82.60;;;;;;4113411;28;20587;-60
2022/01/03 08:25:08;;;;;;;21.95;3.63;;;15.90;82.70;;;;;;4117775;28;20050;-60
2022/01/03 08:27:31;;;;;;;24.92;4.80;;;15.90;83.70;;;;;;4109255;28;20713;-60
2022/01/03 08:29:56;;;;;;;21.33;3.70;;;15.90;82.80;;;;;;4108814;28;20125;-60
2022/01/03 08:32:19;;;;;;;20.20;3.28;;;15.90;82.70;;;;;;4117908;28;20050;-61
2022/01/03 08:34:42;;;;;;;18.48;4.18;;;15.90;82.40;;;;;;4124057;28;20062;-60
2022/01/03 08:37:06;;;;;;;28.27;4.88;;;16.00;82.10;;;;;;4124046;28;20479;-61
2022/01/03 08:39:29;;;;;;;23.23;3.97;;;16.00;81.80;;;;;;4115070;28;20054;-64
2022/01/03 08:41:52;;;;;;;19.13;3.95;;;16.00;81.80;;;;;;4112621;28;20116;-60
2022/01/03 08:44:16;;;;;;;29.30;4.63;;;16.00;81.60;;;;;;4108473;28;20058;-60
2022/01/03 08:46:40;;;;;;;25.23;4.70;;;16.00;81.50;;;;;;4108303;28;20087;-60
2022/01/03 08:49:04;;;;;;;19.48;3.97;;;16.00;81.50;;;;;;4108330;28;20042;-60
2022/01/03 08:51:27;;;;;;;20.20;4.10;;;16.00;81.60;;;;;;4123588;28;20631;-60
2022/01/03 08:53:50;;;;;;;16.02;3.70;;;16.00;81.60;;;;;;4112642;28;20050;-60
2022/01/03 08:56:13;;;;;;;22.13;3.75;;;16.10;81.40;;;;;;4111651;28;20046;-60
2022/01/03 08:58:36;;;;;;;29.33;4.07;;;16.10;81.20;;;;;;4111349;28;20105;-60
2022/01/03 09:00:59;;;;;;;15.88;3.67;;;16.10;80.90;;;;;;4107913;28;20077;-60
2022/01/03 09:03:24;;;;;;;21.90;4.10;;;16.20;80.90;;;;;;4111058;28;20054;-60
2022/01/03 09:05:49;;;;;;;25.52;3.55;;;16.20;80.70;;;;;;4117463;28;20050;-60
2022/01/03 09:08:13;;;;;;;18.30;3.38;;;16.20;80.60;;;;;;4118523;28;20214;-60
2022/01/03 09:10:35;;;;;;;17.50;3.45;;;16.20;80.80;;;;;;4115327;28;20407;-60
2022/01/03 09:12:59;;;;;;;21.65;4.25;;;16.10;80.90;;;;;;4108186;28;20091;-60
2022/01/03 09:15:23;;;;;;;29.40;5.55;;;16.10;81.80;;;;;;4108337;28;20097;-60
2022/01/03 09:17:47;;;;;;;24.08;4.18;;;16.10;80.90;;;;;;4108066;28;20055;-60
2022/01/03 09:20:12;;;;;;;19.48;3.28;;;16.10;80.90;;;;;;4108065;28;20051;-60
2022/01/03 09:22:41;;;;;;;22.80;3.92;;;16.10;81.10;;;;;;4108786;28;20114;-60
2022/01/03 09:30:27;;;;;;;20.73;3.78;;;16.00;81.60;;;;;;4112461;28;20055;-60
2022/01/03 09:32:50;;;;;;;18.10;3.50;;;16.00;81.70;;;;;;4116563;28;20093;-61
2022/01/03 09:35:15;;;;;;;23.67;5.05;;;15.90;81.70;;;;;;4112218;28;20081;-60
2022/01/03 09:37:40;;;;;;;17.55;3.83;;;15.90;81.80;;;;;;4107944;28;20083;-60
2022/01/03 09:40:05;;;;;;;13.48;3.13;;;15.90;81.90;;;;;;4108075;28;20098;-60
2022/01/03 09:42:31;;;;;;;20.20;3.97;;;15.90;81.90;;;;;;4122499;28;20141;-60
2022/01/03 09:44:56;;;;;;;16.98;3.53;;;15.90;81.90;;;;;;4107890;28;20051;-60
2022/01/03 09:47:21;;;;;;;17.73;4.40;;;15.90;82.10;;;;;;4108005;28;20117;-60
2022/01/03 09:49:45;;;;;;;20.15;3.53;;;15.80;82.00;;;;;;4107908;28;20059;-60
2022/01/03 09:52:10;;;;;;;13.95;3.15;;;15.80;82.00;;;;;;4107882;28;20380;-60
2022/01/03 09:54:33;;;;;;;22.05;3.75;;;15.80;82.00;;;;;;4113646;28;20054;-60
2022/01/03 09:56:59;;;;;;;15.55;3.05;;;15.80;82.00;;;;;;4122293;28;20050;-60
2022/01/03 09:59:23;;;;;;;19.73;4.22;;;15.80;82.10;;;;;;4107759;28;20086;-60
2022/01/03 10:01:46;;;;;;;22.15;4.55;;;15.80;82.10;;;;;;4112618;28;20084;-60
2022/01/03 10:04:11;;;;;;;23.05;4.40;;;15.70;82.10;;;;;;4119457;28;20058;-60
2022/01/03 10:06:34;;;;;;;16.83;4.70;;;15.70;82.10;;;;;;4113624;28;20046;-60
2022/01/03 10:09:00;;;;;;;23.42;3.33;;;15.70;82.10;;;;;;4112047;28;20086;-60
2022/01/03 10:11:24;;;;;;;18.17;3.50;;;15.70;82.20;;;;;;4114381;28;20050;-60
2022/01/03 10:13:47;;;;;;;18.17;4.18;;;15.70;82.20;;;;;;4117992;28;20058;-60
2022/01/03 10:16:10;;;;;;;17.88;3.38;;;15.70;82.20;;;;;;4114202;28;20439;-61
2022/01/03 10:18:47;;;;;;;15.82;3.67;;;15.70;82.20;;;;;;4116169;28;20114;-60
2022/01/03 10:21:10;;;;;;;17.48;3.85;;;15.60;82.10;;;;;;4109133;28;20109;-60
2022/01/03 10:23:33;;;;;;;25.77;4.57;;;15.70;82.20;;;;;;4108194;28;20054;-59
2022/01/03 10:26:14;;;;;;;15.93;2.47;;;15.60;82.20;;;;;;4111296;28;20042;-59
2022/01/03 10:28:38;;;;;;;28.27;4.63;;;15.60;82.20;;;;;;4106752;28;20503;-59
2022/01/03 10:31:01;;;;;;;23.73;4.07;;;15.60;82.40;;;;;;4107206;28;20491;-60
2022/01/03 10:33:25;;;;;;;21.85;3.42;;;15.60;83.00;;;;;;4109791;28;20059;-59
2022/01/03 10:35:50;;;;;;;22.08;3.33;;;15.60;82.10;;;;;;4121409;28;20116;-59
2022/01/03 10:38:31;;;;;;;20.27;3.67;;;15.60;82.30;;;;;;4122967;28;20104;-60
2022/01/03 10:41:13;;;;;;;24.38;4.43;;;15.60;82.10;;;;;;4119981;28;20109;-59
2022/01/03 10:43:36;;;;;;;26.38;4.13;;;15.60;82.20;;;;;;4110666;28;20051;-59
2022/01/03 10:46:00;;;;;;;18.67;4.35;;;15.50;82.30;;;;;;4111020;28;20669;-59
2022/01/03 10:48:32;;;;;;;15.63;3.55;;;15.60;83.10;;;;;;4110746;28;20087;-60
2022/01/03 10:50:57;;;;;;;20.05;4.28;;;15.50;82.10;;;;;;4110046;28;20442;-59
2022/01/03 10:53:32;;;;;;;18.90;3.92;;;15.50;82.20;;;;;;4110573;28;20046;-59
2022/01/03 10:55:55;;;;;;;13.68;3.70;;;15.50;82.10;;;;;;4115891;28;20051;-60
2022/01/03 10:58:33;;;;;;;25.42;4.63;;;15.50;82.40;;;;;;4110518;28;20542;-59
2022/01/03 11:00:56;;;;;;;20.35;3.70;;;15.50;82.30;;;;;;4109903;28;20050;-58
2022/01/03 11:03:27;;;;;;;23.77;4.38;;;15.50;82.50;;;;;;4110214;28;20458;-60
2022/01/03 11:05:54;;;;;;;26.13;3.92;;;15.50;82.40;;;;;;4110035;28;20082;-60
2022/01/03 11:11:02;;;;;;;22.10;3.97;;;15.50;82.50;;;;;;4116534;28;20128;-58
2022/01/03 11:13:26;;;;;;;18.10;3.97;;;15.50;82.50;;;;;;4112512;28;20054;-58
2022/01/03 11:15:54;;;;;;;21.98;3.85;;;15.50;82.50;;;;;;4127425;28;20042;-60
2022/01/03 11:18:19;;;;;;;22.13;3.95;;;15.50;82.30;;;;;;4123854;28;20055;-59
2022/01/03 11:20:43;;;;;;;30.35;4.28;;;15.50;82.40;;;;;;4112561;28;20105;-60
2022/01/03 11:23:06;;;;;;;11.82;2.55;;;15.40;82.00;;;;;;4112227;28;20054;-60
2022/01/03 11:25:30;;;;;;;20.90;3.78;;;15.40;82.20;;;;;;4111748;28;20047;-60
2022/01/03 11:27:53;;;;;;;20.02;4.07;;;15.40;82.30;;;;;;4111610;28;20062;-57
2022/01/03 11:30:20;;;;;;;20.65;4.13;;;15.40;82.30;;;;;;4111801;28;20450;-59
2022/01/03 11:32:44;;;;;;;22.15;3.78;;;15.30;82.10;;;;;;4111938;28;20109;-60
2022/01/03 11:35:07;;;;;;;21.95;3.85;;;15.40;82.40;;;;;;4111811;28;20058;-59
2022/01/03 11:37:34;;;;;;;13.63;3.30;;;15.30;82.30;;;;;;4111781;28;20471;-59
2022/01/03 11:39:59;;;;;;;20.30;4.95;;;15.30;82.50;;;;;;4096274;28;20059;-59
2022/01/03 11:42:23;;;;;;;22.10;4.15;;;15.30;82.50;;;;;;4106105;28;20055;-59
2022/01/03 11:44:46;;;;;;;23.52;4.72;;;15.30;82.30;;;;;;4112991;28;20419;-59
2022/01/03 11:47:11;;;;;;;22.27;4.55;;;15.30;82.70;;;;;;4123669;28;20490;-59
2022/01/03 11:49:36;;;;;;;19.02;3.30;;;15.30;82.50;;;;;;4127467;28;20050;-59
2022/01/03 11:52:03;;;;;;;17.50;4.43;;;15.30;82.60;;;;;;4127600;28;20041;-59
2022/01/03 11:54:26;;;;;;;17.70;5.32;;;15.30;82.60;;;;;;4125318;28;20116;-59
2022/01/03 11:57:06;;;;;;;20.80;3.45;;;15.30;83.10;;;;;;4111434;28;20054;-60
2022/01/03 12:03:36;;;;;;;26.85;3.83;;;15.30;83.00;;;;;;4108591;28;20047;-73
2022/01/03 12:05:11;;;;;;;19.60;3.28;;;15.60;83.60;;;;;;4123357;28;20050;-67
2022/01/03 12:07:34;;;;;;;15.00;3.53;;;15.70;83.40;;;;;;4102649;28;20109;-67
2022/01/03 12:10:09;;;;;;;35.22;5.15;;;15.80;82.80;;;;;;4109604;28;20466;-67
2022/01/03 12:12:34;;;;;;;24.13;3.85;;;15.90;82.20;;;;;;4121325;28;20038;-67
2022/01/03 12:14:59;;;;;;;29.02;4.63;;;16.00;81.90;;;;;;4139724;28;20080;-67
2022/01/03 12:17:24;;;;;;;22.88;4.10;;;16.00;81.80;;;;;;4123185;28;20055;-66
2022/01/03 12:19:49;;;;;;;18.48;4.10;;;16.00;81.60;;;;;;4108767;28;20063;-67
2022/01/03 12:22:15;;;;;;;18.02;3.35;;;16.00;81.50;;;;;;4111293;28;20047;-67
2022/01/03 12:24:47;;;;;;;21.42;4.05;;;16.00;81.40;;;;;;4123698;28;20050;-67
2022/01/03 12:27:25;;;;;;;16.35;3.92;;;16.10;81.20;;;;;;4126763;28;20418;-66
2022/01/03 12:30:17;;;;;;;16.63;3.15;;;16.00;81.00;;;;;;4126988;28;20042;-66
2022/01/03 12:32:43;;;;;;;20.65;3.70;;;16.10;80.90;;;;;;4108494;28;20039;-66
2022/01/03 12:35:22;;;;;;;19.30;3.08;;;16.00;81.10;;;;;;4110719;28;20038;-66
2022/01/03 12:37:47;;;;;;;16.65;3.30;;;16.10;81.00;;;;;;4110536;28;20479;-66
2022/01/03 12:40:13;;;;;;;18.90;3.33;;;16.00;81.90;;;;;;4111015;28;20050;-67
2022/01/03 12:42:54;;;;;;;21.88;3.78;;;16.10;80.90;;;;;;4110534;28;20059;-67
2022/01/03 12:45:39;;;;;;;20.90;3.17;;;16.10;80.90;;;;;;4094144;28;20436;-66
2022/01/03 12:48:19;;;;;;;33.08;4.78;;;16.10;80.90;;;;;;4092581;28;20071;-67